• Join FlightAware (Why Join?)
  • Login
  • US Flag 
07:28PM EDT


 

Airport Tracker/Info


-or-


 

Live Flight TrackerFlight Track Log ✈ DAL6225 ✈ 18-Apr-2013 ✈ KMSN - KLGA

Flight Track Log - Related Links

Times and Time Zones

All times are in EDT time to prevent confusion due to time zone crossing. See the DAL6225 flight status page for this flight to view local times or setup timezone preferences in your user account.

Time Position Orientation Groundspeed Altitude Reporting Facility
EDT Latitude Longitude Course Direction KTS MPH feet Rate Location/Type
08:34AM 43.1881 -89.3108 90° East 236 272 3,000  Level Chicago Center
08:35AM 43.2242 -89.2311 58° Northeast 248 285 5,700 2,580 Climbing Chicago Center
08:36AM 43.2161 -89.1381 97° East 246 283 8,300 2,280 Climbing Chicago Center
08:37AM 43.2047 -89.0319 98° East 274 315 10,400 1,740 Climbing Chicago Center
08:38AM 43.1900 -88.9147 100° East 303 349 11,900 1,260 Climbing Chicago Center
08:39AM 43.1168 -88.1229 90° East  Level FlightAware Approximate
08:39AM 43.1750 -88.7833 99° East 339 390 13,000  Level Chicago Center
08:40AM 43.1558 -88.6183 99° East 371 427 14,300 1,380 Climbing Chicago Center
08:41AM 43.1383 -88.4661 99° East 398 458 15,900 1,620 Climbing Chicago Center
08:42AM 43.1203 -88.3117 99° East 412 474 17,700 1,860 Climbing Chicago Center
08:43AM 43.1225 -88.1539 89° East 420 483 19,700 1,500 Climbing Chicago Center
08:44AM 43.1311 -87.9892 86° East 434 499 20,800 1,080 Climbing Chicago Center
08:45AM 43.1386 -87.8189 86° East 447 514 22,000 1,140 Climbing Chicago Center
08:46AM 43.1469 -87.6431 86° East 460 529 23,200 1,080 Climbing Chicago Center
08:47AM 43.1717 -87.4647 79° East 477 549 24,300 1,080 Climbing Chicago Center
08:48AM 43.2019 -87.2867 77° East 486 559 25,500 1,080 Climbing Chicago Center
08:49AM 43.2281 -87.1025 79° East 492 566 26,500 1,080 Climbing Chicago Center
08:50AM 43.2550 -86.9178 79° East 495 570 27,700 1,080 Climbing Chicago Center
08:51AM 43.2842 -86.7328 78° East 495 570 28,800 1,080 Climbing Chicago Center
08:52AM 43.3183 -86.5081 78° East 499 574 29,900 960 Climbing Chicago Center
08:53AM 43.3472 -86.3189 78° East 502 578 30,800 1,020 Climbing Chicago Center
08:54AM 43.3750 -86.1281 79° East 505 581 32,000 1,200 Climbing Chicago Center
08:55AM 43.3764 -85.9381 89° East 494 568 33,300 1,080 Climbing Chicago Center
08:56AM 43.3706 -85.7508 92° East 488 562 34,200 840 Climbing Chicago Center
08:57AM 43.3642 -85.5675 93° East 481 554 35,000 360 Climbing Chicago Center
08:58AM 43.3586 -85.3817 92° East 483 556 35,000  Level Chicago Center
08:59AM 43.3508 -85.2231 94° East 479 551 35,000  Level Cleveland Center
09:00AM 43.3436 -85.0369 93° East 484 557 35,000  Level Cleveland Center
09:01AM 43.3381 -84.8536 92° East 484 557 35,000  Level Cleveland Center
09:02AM 43.3322 -84.6678 92° East 484 557 35,000  Level Cleveland Center
09:03AM 43.3239 -84.4844 94° East 484 557 35,000  Level Cleveland Center
09:04AM 43.3153 -84.2983 94° East 484 557 35,000  Level Cleveland Center
09:05AM 43.3086 -84.1125 93° East 484 557 35,000  Level Cleveland Center
09:06AM 43.2969 -83.9464 95° East 484 557 35,000  Level Cleveland Center
09:07AM 43.2900 -83.7547 93° East 484 557 35,000  Level Cleveland Center
09:08AM 43.2822 -83.5719 93° East 484 557 35,000  Level Cleveland Center
09:09AM 43.2703 -83.3831 95° East 484 557 35,000  Level Cleveland Center
09:10AM 43.2622 -83.1944 93° East 484 557 35,000  Level Cleveland Center
09:11AM 43.2519 -82.9944 94° East 484 557 35,000  Level Cleveland Center
09:12AM 43.2392 -82.8061 95° East 484 557 35,000  Level Cleveland Center
09:13AM 43.2300 -82.6175 94° East 484 557 35,000  Level Cleveland Center
09:13AM 43.2167 -82.5333 102° East 500 575 35,000  Level Toronto Center
09:14AM 43.2000 -82.3500 97° East 490 564 35,000  Level Toronto Center
09:15AM 43.1833 -82.1667 97° East 490 564 35,000  Level Toronto Center
09:16AM 43.1667 -81.9833 97° East 490 564 35,000  Level Toronto Center
09:17AM 43.1667 -81.8000 90° East 480 552 35,000  Level Toronto Center
09:18AM 43.1667 -81.6167 90° East 480 552 35,000  Level Toronto Center
09:19AM 43.1500 -81.4333 97° East 480 552 35,000  Level Toronto Center
09:20AM 43.1333 -81.2833 99° East 480 552 35,000  Level Toronto Center
09:21AM 43.1167 -81.0667 96° East 480 552 35,000  Level Toronto Center
09:22AM 43.1000 -80.9167 99° East 480 552 35,000  Level Toronto Center
09:23AM 43.1000 -80.7000 90° East 480 552 35,000  Level Toronto Center
09:24AM 43.0833 -80.5500 99° East 480 552 35,000  Level Toronto Center
09:25AM 43.0667 -80.3667 97° East 480 552 35,000  Level Toronto Center
09:26AM 43.0500 -80.1833 97° East 480 552 35,000  Level Toronto Center
09:27AM 43.0333 -80.0000 97° East 480 552 35,000  Level Toronto Center
09:28AM 43.0167 -79.8167 97° East 480 552 35,000  Level Toronto Center
09:29AM 43.0167 -79.6333 90° East 480 552 35,000  Level Toronto Center
09:30AM 43.0000 -79.4500 97° East 480 552 35,000  Level Toronto Center
09:31AM 42.9833 -79.2667 97° East 480 552 35,000  Level Toronto Center
09:32AM 42.9667 -79.0833 97° East 480 552 35,000  Level Toronto Center
09:33AM 42.9500 -78.9000 97° East 480 552 35,000  Level Toronto Center
09:34AM 42.9333 -78.7167 97° East 480 552 35,000  Level Toronto Center
09:35AM 42.9342 -78.6775 88° East 481 554 35,000  Level Cleveland Center
09:36AM 42.9144 -78.4967 98° East 481 554 35,000  Level Cleveland Center
09:37AM 42.8964 -78.3158 98° East 481 554 35,000  Level Cleveland Center
09:38AM 42.8783 -78.1353 98° East 494 568 35,000  Level Cleveland Center
09:39AM 42.8594 -77.9489 98° East 489 563 35,000  Level Cleveland Center
09:40AM 42.8408 -77.7686 98° East 484 557 35,000  Level Cleveland Center
09:42AM 42.7839 -77.3550 100° East 500 575 35,000  Level Boston Center
09:43AM 42.7561 -77.1747 102° East 490 564 35,000  Level Boston Center
09:44AM 42.7322 -76.9975 100° East 485 558 35,000  Level Boston Center
09:45AM 42.7058 -76.8175 101° East 485 558 35,000  Level Boston Center
09:46AM 42.6814 -76.6347 100° East 485 558 35,000  Level Boston Center
09:47AM 42.6547 -76.4550 101° East 485 558 35,000  Level Boston Center
09:48AM 42.6275 -76.2783 102° East 485 558 35,000 -720 Level Boston Center
09:49AM 42.6019 -76.0989 101° East 479 551 33,600 -1,980 Descending Boston Center
09:50AM 42.5742 -75.9253 102° East 474 545 31,100 -2,040 Descending Boston Center
09:51AM 42.5481 -75.7547 102° East 463 533 29,600 -1,440 Descending Boston Center
09:52AM 42.5217 -75.5814 102° East 463 533 28,200 -1,200 Descending Boston Center
09:53AM 42.4931 -75.4053 102° East 468 539 27,300 -660 Descending Boston Center
09:54AM 42.4617 -75.2378 104° East 468 539 27,000 -180 Descending Boston Center
09:55AM 42.4092 -75.0861 115° Southeast 457 526 27,000  Level Boston Center
09:56AM 42.3522 -74.9322 117° Southeast 446 513 27,000 -180 Level Boston Center
09:57AM 42.2950 -74.7783 117° Southeast 446 513 26,700 -1,440 Descending Boston Center
09:58AM 42.2397 -74.6303 117° Southeast 453 521 24,100 -2,580 Descending Boston Center
09:59AM 42.1861 -74.4883 117° Southeast 440 506 21,600 -2,520 Descending Boston Center
10:00AM 42.1244 -74.3156 116° Southeast 432 497 18,600 -1,680 Descending Boston Center
10:01AM 42.0597 -74.1794 123° Southeast 432 497 18,000 -300 Descending Boston Center
10:02AM 41.9844 -74.0628 131° Southeast 432 497 18,000  Level Boston Center
10:03AM 41.8767 -74.0183 163° South 396 456 18,000  Level Boston Center
10:04AM 41.7667 -73.9847 167° South 408 470 18,100 -1,080 Climbing Boston Center
10:05AM 41.6650 -73.9519 166° South 402 463 15,900 -2,400 Descending Boston Center
10:06AM 41.5333 -73.9167 169° South 343 395 12,700 -2,100 Descending New York TRACON
10:07AM 41.4500 -73.8833 163° South 312 359 11,100 -1,620 Descending New York TRACON
10:08AM 41.3833 -73.8333 151° Southeast 292 336 9,700 -1,260 Descending New York TRACON
10:09AM 41.3167 -73.7667 143° Southeast 282 325 8,600 -900 Descending New York TRACON
10:10AM 41.2500 -73.7167 151° Southeast 283 326 8,000 -600 Descending New York TRACON
10:11AM 41.1833 -73.6667 151° Southeast 281 323 7,500 -900 Descending New York TRACON
10:12AM 41.1167 -73.6333 159° South 267 307 6,300 -1,200 Descending New York TRACON
10:13AM 41.0500 -73.6500 191° South 253 291 5,200 -900 Descending New York TRACON
10:14AM 41.0000 -73.7000 217° Southwest 214 246 4,600 -600 Descending New York TRACON
10:15AM 40.9500 -73.7333 207° Southwest 194 223 4,100 -840 Descending New York TRACON
10:16AM 40.9167 -73.7667 217° Southwest 198 228 3,000 -1,080 Descending New York TRACON
10:17AM 40.8667 -73.8000 207° Southwest 166 191 2,000 -900 Descending New York TRACON
10:18AM 40.8333 -73.8333 217° Southwest 136 157 1,200 -780 Descending New York TRACON
10:19AM 40.8000 -73.8500 201° Southwest 133 153 600 -720 Descending New York TRACON
10:21AM 40.7667 -73.8667 180° South  Level FlightAware Approximate
10:28AM 40.7772 -73.8726 180° South  Level Estimated
10:29AM 40.7772 -73.8726 180° South  Level Estimated